New Holland Crossroads, South Carolina
Current Conditions -  °F | °C
As of 3:15 PM on Sunday 23 Nov 2014 (Local Time) from KAIK Reporting Station
Moderate Rain Moderate Rain  
Wind Chill: 61°   Ceiling: 500
Heat Index: 61°   Visibility: 5mi
Dew Point: 61°   Wind: 8mph
Humidity: 100%   Direction: 110°ESE
Pressure: 29.89"   Gusts: NA
Location:  33.9549°N, 81.564°W
Report Text: KAIK 232015Z AUTO 11007KT 5SM RA OVC005 16/16 A2989 RMK AO2 LTG DSNT S PNO
Loading
Personal Weather Stations






























Interactive Weather Map New forecast layout! Learn more

10-Day Weather Forecast

Advertisements
Track Severe Weather on mobile